UPN weather

Licenciado y General Ignacio Lopez Rayon Airport
Michoacin, Mexico

Public forecast

Using degrees Celsius for public forecast. Weather courtesy of forecast.io.

METAR (pilot weather report)

Retrieved 2019/09/22 21:40 UTC (5 minutes ago):

MMPN 222140Z 18006KT 6SM BKN020CB 22/19 A3012 RMK 8/300 HZY

TAF (pilot weather forecast)

Retrieved 2019/09/22 18:12 UTC (4 hours ago):

TAF TAF MMPN 221708Z 2218/2318 18005KT P6SM SCT030 BKN260 FM222100 18012KT P6SM BKN030CB BKN080 TEMPO 2221/2301 4SM TSRA FM230200 00000KT P6SM SCT030 BKN080 BECMG 2305/2306 SCT020SCT080 FM231000 00000KT 5SM HZ BKN015 TEMPO 2311/2315 3SM BR HZ FM231500 00000KT 6SM HZ SCT020